createdAt,value
2022-11-09T00:00:26.311Z,412.88
2022-11-09T00:02:56.807Z,411.38
2022-11-09T00:05:25.182Z,394.50
2022-11-09T00:07:53.565Z,402.75
2022-11-09T00:10:23.213Z,356.17
2022-11-09T00:12:51.704Z,354.10
2022-11-09T00:15:20.083Z,413.38
2022-11-09T00:17:48.578Z,420.13
2022-11-09T00:20:17.147Z,424.25
2022-11-09T00:22:49.497Z,424.23
2022-11-09T00:25:18.279Z,390.70
2022-11-09T00:27:48.040Z,392.85
2022-11-09T00:30:16.656Z,419.13
2022-11-09T00:32:45.324Z,448.23
2022-11-09T00:35:13.651Z,419.27
2022-11-09T00:37:42.147Z,415.63
2022-11-09T00:40:13.216Z,365.75
2022-11-09T00:42:41.670Z,447.20
2022-11-09T00:45:11.863Z,424.55
2022-11-09T00:47:40.241Z,425.08
2022-11-09T00:50:09.621Z,420.92
2022-11-09T00:52:38.436Z,407.42
2022-11-09T00:55:07.540Z,430.52
2022-11-09T00:57:35.938Z,431.33
2022-11-09T01:00:04.529Z,430.38
2022-11-09T01:02:34.237Z,430.83
2022-11-09T01:05:02.565Z,439.05
2022-11-09T01:07:30.968Z,410.70
2022-11-09T01:09:59.376Z,405.83
2022-11-09T01:12:27.685Z,398.02
2022-11-09T01:14:56.004Z,369.58
2022-11-09T01:17:24.634Z,397.45
2022-11-09T01:19:54.415Z,427.63
2022-11-09T01:22:22.884Z,406.92
2022-11-09T01:24:51.219Z,413.27
2022-11-09T01:27:19.561Z,395.40
2022-11-09T01:29:47.947Z,403.00
2022-11-09T01:32:16.373Z,417.55
2022-11-09T01:34:44.929Z,386.50
2022-11-09T01:37:14.792Z,404.20
2022-11-09T01:39:43.185Z,394.85
2022-11-09T01:42:11.498Z,396.17
2022-11-09T01:44:40.221Z,386.85
2022-11-09T01:47:12.225Z,389.00
2022-11-09T01:49:43.435Z,397.15
2022-11-09T01:52:16.983Z,381.50
2022-11-09T01:54:47.841Z,414.07
2022-11-09T01:57:20.622Z,387.42
2022-11-09T01:59:52.159Z,400.50
2022-11-09T02:02:20.693Z,396.67
2022-11-09T02:04:52.995Z,370.15
2022-11-09T02:07:23.540Z,379.55
2022-11-09T02:09:55.805Z,377.30
2022-11-09T02:12:24.803Z,391.83
2022-11-09T02:14:55.742Z,405.50
2022-11-09T02:17:24.628Z,421.02
2022-11-09T02:19:52.955Z,421.50
2022-11-09T02:22:22.768Z,414.73
2022-11-09T02:24:56.028Z,428.85
2022-11-09T02:27:24.879Z,380.77
2022-11-09T02:29:53.789Z,393.90
2022-11-09T02:32:25.849Z,396.35
2022-11-09T02:34:54.212Z,404.48
2022-11-09T02:37:32.658Z,396.05
2022-11-09T02:40:02.594Z,401.90
2022-11-09T02:42:31.130Z,369.73
2022-11-09T02:45:01.064Z,390.45
2022-11-09T02:47:29.690Z,399.25
2022-11-09T02:49:58.357Z,363.08
2022-11-09T02:52:26.761Z,391.30
2022-11-09T02:54:56.512Z,384.45
2022-11-09T02:57:24.945Z,388.85
2022-11-09T02:59:53.209Z,359.85
2022-11-09T03:02:21.580Z,355.90
2022-11-09T03:04:49.956Z,405.50
2022-11-09T03:07:18.374Z,356.27
2022-11-09T03:09:47.128Z,336.92
2022-11-09T03:12:31.771Z,355.25
2022-11-09T03:15:01.719Z,339.27
2022-11-09T03:17:30.319Z,327.90
2022-11-09T03:19:58.719Z,364.77
2022-11-09T03:22:27.202Z,355.65
2022-11-09T03:24:55.742Z,373.02
2022-11-09T03:27:25.808Z,377.77
2022-11-09T03:29:54.253Z,410.80
2022-11-09T03:32:22.700Z,384.23
2022-11-09T03:34:51.602Z,400.42
2022-11-09T03:37:20.039Z,368.15
2022-11-09T03:39:48.486Z,361.73
2022-11-09T03:42:16.791Z,307.98
2022-11-09T03:44:46.592Z,350.02
2022-11-09T03:47:14.953Z,359.13
2022-11-09T03:49:43.291Z,345.42
2022-11-09T03:52:11.794Z,331.08
2022-11-09T03:54:40.203Z,332.55
2022-11-09T03:57:08.659Z,307.60
2022-11-09T03:59:37.131Z,286.80
2022-11-09T04:02:07.103Z,305.85
2022-11-09T04:04:35.611Z,337.42
2022-11-09T04:07:04.108Z,347.00
2022-11-09T04:09:32.826Z,306.83
2022-11-09T04:12:01.253Z,275.45
2022-11-09T04:14:29.621Z,246.90
2022-11-09T04:16:58.006Z,250.25
2022-11-09T04:19:27.801Z,268.75
2022-11-09T04:21:56.119Z,252.73
2022-11-09T04:24:24.463Z,228.50
2022-11-09T04:26:52.912Z,267.98
2022-11-09T04:29:21.369Z,234.93
2022-11-09T04:31:50.092Z,257.23
2022-11-09T04:34:18.832Z,236.00
2022-11-09T04:36:48.557Z,261.90
2022-11-09T04:39:16.937Z,309.80
2022-11-09T04:41:45.245Z,263.92
2022-11-09T04:44:13.548Z,238.20
2022-11-09T04:46:42.641Z,249.68
2022-11-09T04:49:11.079Z,233.70
2022-11-09T04:51:39.422Z,301.55
2022-11-09T04:54:09.242Z,230.85
2022-11-09T04:56:37.604Z,288.10
2022-11-09T04:59:06.040Z,257.55
2022-11-09T05:01:34.348Z,252.93
2022-11-09T05:04:02.768Z,238.60
2022-11-09T05:06:34.188Z,261.88
2022-11-09T05:09:04.650Z,245.23
2022-11-09T05:11:35.170Z,245.45
2022-11-09T05:14:04.100Z,245.30
2022-11-09T05:16:32.612Z,229.70
2022-11-09T05:19:01.006Z,212.85
2022-11-09T05:21:29.305Z,228.32
2022-11-09T05:23:59.705Z,220.05
2022-11-09T05:26:29.779Z,217.30
2022-11-09T05:29:00.315Z,240.23
2022-11-09T05:31:29.748Z,245.90
2022-11-09T05:33:59.317Z,241.23
2022-11-09T05:36:28.896Z,249.00
2022-11-09T05:38:57.702Z,241.93
2022-11-09T05:41:26.150Z,244.35
2022-11-09T05:43:54.760Z,228.80
2022-11-09T05:46:25.164Z,226.32
2022-11-09T05:48:53.537Z,227.85
2022-11-09T05:51:21.887Z,273.42
2022-11-09T05:53:50.205Z,238.13
2022-11-09T05:56:18.972Z,232.27
2022-11-09T05:58:47.282Z,228.23
2022-11-09T06:01:18.616Z,211.45
2022-11-09T06:03:48.284Z,255.27
2022-11-09T06:06:17.586Z,236.85
2022-11-09T06:08:45.981Z,234.88
2022-11-09T06:11:22.844Z,238.65
2022-11-09T06:13:51.858Z,268.45
2022-11-09T06:16:20.340Z,271.75
2022-11-09T06:18:49.946Z,259.52
2022-11-09T06:21:18.413Z,246.40
2022-11-09T06:23:46.889Z,241.57
2022-11-09T06:26:15.391Z,268.58
2022-11-09T06:28:43.935Z,322.17
2022-11-09T06:31:15.230Z,326.10
2022-11-09T06:33:43.712Z,288.80
2022-11-09T06:36:13.887Z,322.63
2022-11-09T06:38:42.607Z,259.45
2022-11-09T06:41:11.888Z,255.82
2022-11-09T06:43:40.456Z,306.02
2022-11-09T06:46:10.835Z,295.75
2022-11-09T06:48:39.648Z,228.60
2022-11-09T06:51:09.036Z,260.35
2022-11-09T06:53:41.286Z,247.10
2022-11-09T06:56:10.214Z,246.55
2022-11-09T06:58:39.465Z,246.68
2022-11-09T07:01:11.393Z,331.85
2022-11-09T07:03:40.379Z,303.65
2022-11-09T07:06:10.272Z,367.65
2022-11-09T07:08:40.451Z,391.20
2022-11-09T07:11:09.887Z,310.30
2022-11-09T07:13:38.527Z,345.23
2022-11-09T07:16:07.598Z,341.17
2022-11-09T07:18:36.018Z,311.10
2022-11-09T07:21:12.833Z,446.60
2022-11-09T07:23:44.271Z,331.17
2022-11-09T07:26:12.779Z,236.40
2022-11-09T07:28:41.278Z,342.13
2022-11-09T07:31:10.297Z,253.13
2022-11-09T07:33:38.696Z,266.83
2022-11-09T07:36:08.017Z,236.73
2022-11-09T07:38:36.467Z,325.10
2022-11-09T07:41:06.461Z,262.70
2022-11-09T07:43:34.916Z,357.30
2022-11-09T07:46:05.699Z,240.95
2022-11-09T07:48:34.270Z,251.85
2022-11-09T07:51:03.076Z,252.80
2022-11-09T07:53:31.631Z,262.88
2022-11-09T07:56:00.953Z,277.20
2022-11-09T07:58:31.298Z,322.48
2022-11-09T08:00:59.742Z,272.45
2022-11-09T08:03:28.324Z,279.85
2022-11-09T08:05:58.673Z,405.52
2022-11-09T08:08:27.259Z,281.40
2022-11-09T08:10:58.297Z,261.88
2022-11-09T08:13:26.919Z,268.30
2022-11-09T08:15:56.999Z,268.00
2022-11-09T08:18:25.497Z,292.38
2022-11-09T08:20:53.979Z,383.23
2022-11-09T08:23:26.997Z,257.00
2022-11-09T08:25:55.460Z,323.88
2022-11-09T08:28:24.103Z,240.88
2022-11-09T08:30:59.230Z,270.95
2022-11-09T08:33:29.032Z,207.77
2022-11-09T08:35:57.632Z,275.77
2022-11-09T08:38:26.211Z,224.05
2022-11-09T08:40:58.722Z,230.30
2022-11-09T08:43:27.769Z,316.88
2022-11-09T08:45:57.463Z,243.13
2022-11-09T08:48:26.216Z,253.38
2022-11-09T08:50:55.901Z,222.00
2022-11-09T08:53:24.950Z,220.52
2022-11-09T08:55:53.667Z,281.88
2022-11-09T08:58:23.072Z,253.70
2022-11-09T09:00:51.674Z,402.88
2022-11-09T09:03:21.417Z,280.00
2022-11-09T09:05:49.760Z,261.48
2022-11-09T09:08:22.034Z,278.77
2022-11-09T09:10:50.900Z,287.23
2022-11-09T09:13:22.467Z,321.30
2022-11-09T09:15:50.908Z,288.15
2022-11-09T09:18:21.270Z,313.60
2022-11-09T09:20:50.188Z,314.83
2022-11-09T09:23:20.592Z,297.98
2022-11-09T09:25:48.941Z,346.25
2022-11-09T09:28:17.649Z,321.00
2022-11-09T09:30:46.221Z,327.67
2022-11-09T09:33:14.545Z,351.63
2022-11-09T09:35:44.484Z,370.60
2022-11-09T09:38:12.903Z,276.05
2022-11-09T09:40:44.737Z,488.95
2022-11-09T09:43:16.522Z,437.50
2022-11-09T09:45:51.600Z,297.73
2022-11-09T09:48:27.170Z,342.83
2022-11-09T09:51:00.941Z,342.58
2022-11-09T09:53:33.779Z,345.80
2022-11-09T09:56:07.555Z,354.40
2022-11-09T09:58:38.001Z,438.60
2022-11-09T10:01:12.136Z,377.35
2022-11-09T10:03:40.780Z,461.27
2022-11-09T10:06:27.699Z,313.38
2022-11-09T10:09:02.936Z,331.27
2022-11-09T10:11:36.288Z,304.77
2022-11-09T10:14:22.158Z,364.67
2022-11-09T10:16:55.805Z,385.10
2022-11-09T10:19:35.382Z,599.60
2022-11-09T10:22:13.107Z,576.78
2022-11-09T10:25:12.216Z,433.65
2022-11-09T10:30:13.351Z,456.52
2022-11-09T10:32:41.985Z,446.10
2022-11-09T10:35:18.594Z,440.52
2022-11-09T10:37:50.175Z,494.95
2022-11-09T10:40:22.733Z,563.33
2022-11-09T10:42:52.800Z,429.63
2022-11-09T10:45:29.461Z,435.55
2022-11-09T10:47:58.168Z,525.47
2022-11-09T10:50:33.584Z,413.08
2022-11-09T10:53:18.067Z,404.30
2022-11-09T10:55:54.751Z,367.70
2022-11-09T10:58:32.763Z,398.80
2022-11-09T11:01:03.581Z,415.65
2022-11-09T11:03:33.414Z,415.13
2022-11-09T11:06:02.855Z,397.98
2022-11-09T11:08:39.294Z,413.85
2022-11-09T11:11:33.795Z,377.30
2022-11-09T11:14:19.936Z,329.90
2022-11-09T11:16:50.794Z,369.70
2022-11-09T11:19:34.771Z,339.40
2022-11-09T11:22:22.742Z,332.95
2022-11-09T11:24:57.189Z,495.25
2022-11-09T11:30:00.634Z,313.45
2022-11-09T11:32:29.168Z,406.48
2022-11-09T11:35:00.770Z,432.65
2022-11-09T11:37:37.916Z,390.23
2022-11-09T11:40:11.604Z,396.17
2022-11-09T11:43:09.284Z,368.58
2022-11-09T11:45:42.004Z,373.25
2022-11-09T11:48:26.150Z,396.83
2022-11-09T11:50:58.960Z,435.42
2022-11-09T11:53:48.516Z,411.42
2022-11-09T11:56:24.447Z,374.95
2022-11-09T11:59:13.947Z,491.95
2022-11-09T12:01:52.205Z,417.65
2022-11-09T12:04:45.443Z,409.30
2022-11-09T12:07:23.539Z,378.20
2022-11-09T12:10:18.144Z,403.33
2022-11-09T12:12:56.733Z,360.13
2022-11-09T12:15:38.246Z,401.63
2022-11-09T12:18:16.275Z,483.50
2022-11-09T12:20:51.486Z,440.17
2022-11-09T12:23:31.761Z,365.65
2022-11-09T12:26:13.383Z,362.73
2022-11-09T12:29:03.702Z,484.45
2022-11-09T12:31:48.953Z,355.15
2022-11-09T12:34:22.453Z,404.77
2022-11-09T12:36:54.042Z,370.47
2022-11-09T12:39:27.010Z,407.60
2022-11-09T12:42:00.225Z,564.63
2022-11-09T12:44:33.280Z,347.42
2022-11-09T12:47:04.193Z,406.00
2022-11-09T12:49:36.736Z,378.38
2022-11-09T12:52:06.266Z,413.17
2022-11-09T12:54:35.875Z,399.85
2022-11-09T12:57:07.607Z,357.90
2022-11-09T12:59:49.850Z,432.73
2022-11-09T13:02:25.487Z,415.55
2022-11-09T13:04:59.028Z,503.75
2022-11-09T13:07:47.030Z,388.77
2022-11-09T13:10:27.432Z,396.83
2022-11-09T13:13:04.754Z,405.95
2022-11-09T13:15:35.492Z,384.92
2022-11-09T13:18:06.296Z,407.23
2022-11-09T13:20:59.204Z,422.02
2022-11-09T13:23:59.069Z,412.77
2022-11-09T13:26:41.694Z,405.63
2022-11-09T13:29:22.454Z,480.45
2022-11-09T13:32:25.779Z,431.58
2022-11-09T13:34:55.456Z,372.38
2022-11-09T13:37:50.874Z,391.27
2022-11-09T13:40:41.860Z,425.00
2022-11-09T13:43:22.321Z,428.05
2022-11-09T13:45:53.060Z,396.55
2022-11-09T13:48:49.806Z,418.48
2022-11-09T13:51:20.679Z,386.98
2022-11-09T13:53:59.787Z,437.00
2022-11-09T13:56:33.217Z,426.45
2022-11-09T13:59:06.798Z,387.87
2022-11-09T14:01:38.523Z,544.88
2022-11-09T14:04:15.327Z,351.27
2022-11-09T14:06:43.889Z,370.42
2022-11-09T14:09:17.652Z,349.52
2022-11-09T14:12:04.923Z,443.70
2022-11-09T14:15:00.087Z,330.20
2022-11-09T14:20:11.909Z,584.08
2022-11-09T14:22:42.067Z,552.92
2022-11-09T14:25:18.069Z,320.08
2022-11-09T14:27:50.588Z,381.52
2022-11-09T14:30:24.169Z,304.85
2022-11-09T14:32:55.227Z,362.65
2022-11-09T14:35:27.668Z,442.88
2022-11-09T14:37:57.257Z,373.40
2022-11-09T14:40:27.744Z,418.15
2022-11-09T14:42:59.677Z,322.77
2022-11-09T14:45:28.717Z,508.10
2022-11-09T14:47:58.949Z,353.77
2022-11-09T14:50:30.475Z,315.48
2022-11-09T14:52:59.584Z,280.08
2022-11-09T14:55:29.016Z,332.70
2022-11-09T14:57:57.793Z,411.33
2022-11-09T15:00:31.539Z,323.42
2022-11-09T15:03:00.244Z,264.50
2022-11-09T15:05:39.760Z,361.60
2022-11-09T15:08:16.889Z,317.67
2022-11-09T15:10:50.852Z,368.58
2022-11-09T15:13:20.155Z,314.15
2022-11-09T15:15:52.697Z,343.60
2022-11-09T15:18:26.777Z,351.15
2022-11-09T15:21:16.520Z,319.45
2022-11-09T15:23:46.038Z,278.83
2022-11-09T15:26:30.318Z,278.75
2022-11-09T15:28:58.611Z,311.30
2022-11-09T15:31:28.385Z,268.52
2022-11-09T15:33:58.182Z,263.42
2022-11-09T15:36:30.692Z,276.55
2022-11-09T15:39:08.986Z,332.52
2022-11-09T15:41:38.524Z,267.08
2022-11-09T15:44:07.429Z,326.23
2022-11-09T15:46:38.761Z,300.77
2022-11-09T15:49:19.606Z,416.35
2022-11-09T15:51:49.479Z,309.67
2022-11-09T15:54:18.122Z,280.98
2022-11-09T15:56:47.049Z,315.77
2022-11-09T15:59:20.398Z,308.40
2022-11-09T16:01:48.975Z,323.52
2022-11-09T16:04:17.316Z,283.80
2022-11-09T16:06:46.967Z,293.45
2022-11-09T16:09:19.559Z,329.83
2022-11-09T16:11:50.764Z,386.02
2022-11-09T16:14:21.520Z,375.88
2022-11-09T16:16:50.328Z,323.58
2022-11-09T16:19:18.867Z,330.70
2022-11-09T16:21:47.356Z,332.35
2022-11-09T16:24:17.803Z,352.00
2022-11-09T16:26:46.428Z,268.08
2022-11-09T16:29:15.116Z,460.25
2022-11-09T16:31:52.148Z,287.65
2022-11-09T16:34:21.082Z,365.55
2022-11-09T16:36:56.429Z,305.73
2022-11-09T16:39:27.588Z,295.10
2022-11-09T16:41:56.647Z,497.00
2022-11-09T16:44:26.209Z,342.15
2022-11-09T16:46:54.836Z,370.52
2022-11-09T16:49:23.348Z,325.58
2022-11-09T16:51:51.768Z,317.20
2022-11-09T16:54:27.371Z,319.08
2022-11-09T16:56:58.547Z,292.38
2022-11-09T16:59:27.805Z,293.75
2022-11-09T17:01:57.742Z,280.50
2022-11-09T17:04:26.450Z,345.67
2022-11-09T17:06:55.082Z,305.30
2022-11-09T17:09:23.845Z,341.13
2022-11-09T17:11:54.515Z,264.70
2022-11-09T17:14:23.692Z,277.15
2022-11-09T17:19:55.042Z,366.45
2022-11-09T17:22:23.727Z,304.25
2022-11-09T17:24:52.442Z,453.05
2022-11-09T17:27:22.533Z,510.10
2022-11-09T17:29:51.185Z,313.35
2022-11-09T17:32:24.896Z,424.02
2022-11-09T17:34:53.872Z,347.35
2022-11-09T17:37:22.750Z,390.92
2022-11-09T17:39:53.442Z,302.73
2022-11-09T17:42:31.383Z,508.52
2022-11-09T17:45:00.662Z,335.83
2022-11-09T17:47:31.078Z,322.40
2022-11-09T17:49:59.996Z,310.50
2022-11-09T17:52:28.503Z,342.00
2022-11-09T17:54:57.143Z,309.05
2022-11-09T17:57:29.483Z,358.88
2022-11-09T18:00:01.401Z,336.88
2022-11-09T18:02:32.229Z,269.77
2022-11-09T18:08:02.952Z,297.77
2022-11-09T18:10:48.642Z,340.27
2022-11-09T18:13:19.230Z,294.92
2022-11-09T18:15:54.316Z,370.48
2022-11-09T18:18:55.824Z,338.70
2022-11-09T18:21:25.583Z,302.65
2022-11-09T18:24:43.556Z,367.42
2022-11-09T18:27:31.414Z,298.90
2022-11-09T18:58:32.501Z,295.67
2022-11-09T19:01:02.333Z,258.48
2022-11-09T19:01:37.511Z,278.70
2022-11-09T19:03:30.892Z,286.75
2022-11-09T19:05:59.514Z,317.17
2022-11-09T19:08:45.650Z,390.10
2022-11-09T19:11:16.074Z,355.40
2022-11-09T19:13:44.658Z,284.25
2022-11-09T19:16:14.424Z,233.63
2022-11-09T19:18:42.929Z,245.70
2022-11-09T19:21:29.315Z,242.45
2022-11-09T19:23:59.372Z,260.38
2022-11-09T19:26:29.369Z,201.32
2022-11-09T19:28:57.971Z,354.83
2022-11-09T19:31:27.155Z,259.42
2022-11-09T19:33:55.707Z,216.25
2022-11-09T19:36:30.607Z,309.10
2022-11-09T19:38:59.942Z,253.23
2022-11-09T19:41:29.786Z,220.73
2022-11-09T19:43:59.328Z,225.80
2022-11-09T19:46:30.448Z,225.38
2022-11-09T19:48:59.423Z,205.02
2022-11-09T19:51:29.394Z,241.32
2022-11-09T19:53:59.023Z,278.65
2022-11-09T19:56:31.211Z,256.40
2022-11-09T19:59:01.159Z,224.85
2022-11-09T20:01:30.379Z,208.80
2022-11-09T20:04:00.296Z,216.27
2022-11-09T20:06:29.530Z,226.90
2022-11-09T20:08:59.451Z,311.15
2022-11-09T20:11:47.501Z,226.00
2022-11-09T20:14:16.463Z,210.15
2022-11-09T20:16:46.832Z,223.65
2022-11-09T20:19:15.536Z,223.38
2022-11-09T20:21:44.489Z,270.83
2022-11-09T20:24:14.379Z,213.55
2022-11-09T20:26:44.389Z,274.05
2022-11-09T20:29:13.030Z,210.35
2022-11-09T20:31:42.096Z,234.00
2022-11-09T20:34:10.548Z,291.35
2022-11-09T20:36:38.954Z,213.80
2022-11-09T20:39:07.413Z,239.23
2022-11-09T20:41:36.440Z,231.40
2022-11-09T20:44:06.347Z,220.45
2022-11-09T20:46:36.742Z,210.20
2022-11-09T20:49:05.849Z,220.25
2022-11-09T20:51:36.693Z,220.63
2022-11-09T20:54:08.104Z,208.73
2022-11-09T20:56:37.923Z,241.10
2022-11-09T20:59:07.982Z,220.50
2022-11-09T21:01:36.462Z,242.45
2022-11-09T21:04:05.537Z,205.30
2022-11-09T21:06:34.159Z,228.60
2022-11-09T21:09:04.636Z,226.73
2022-11-09T21:11:35.978Z,223.43
2022-11-09T21:14:04.492Z,224.15
2022-11-09T21:16:34.344Z,232.75
2022-11-09T21:19:03.134Z,225.10
2022-11-09T21:21:36.223Z,231.27
2022-11-09T21:24:25.065Z,273.53
2022-11-09T21:27:11.244Z,228.45
2022-11-09T21:29:51.713Z,252.82
2022-11-09T21:32:23.222Z,257.98
2022-11-09T21:34:52.789Z,230.40
2022-11-09T21:37:21.246Z,233.35
2022-11-09T21:39:49.744Z,219.15
2022-11-09T21:42:18.203Z,218.32
2022-11-09T21:44:46.690Z,229.07
2022-11-09T21:47:15.333Z,216.90
2022-11-09T21:49:45.588Z,225.27
2022-11-09T21:52:14.056Z,234.55
2022-11-09T21:54:42.514Z,233.70
2022-11-09T21:57:10.939Z,223.95
2022-11-09T21:59:39.468Z,246.35
2022-11-09T22:02:09.521Z,222.07
2022-11-09T22:04:38.019Z,262.90
2022-11-09T22:07:07.938Z,215.95
2022-11-09T22:10:06.030Z,223.85
2022-11-09T22:12:38.940Z,236.73
2022-11-09T22:15:35.055Z,223.15
2022-11-09T22:18:03.490Z,223.93
2022-11-09T22:21:00.936Z,215.65
2022-11-09T22:23:30.953Z,247.93
2022-11-09T22:26:02.385Z,227.70
2022-11-09T22:28:30.703Z,247.35
2022-11-09T22:31:02.153Z,214.75
2022-11-09T22:33:30.935Z,230.80
2022-11-09T22:36:01.229Z,215.95
2022-11-09T22:38:32.322Z,233.48
2022-11-09T22:41:02.505Z,236.05
2022-11-09T22:43:33.236Z,264.58
2022-11-09T22:46:05.097Z,231.45
2022-11-09T22:48:33.756Z,235.88
2022-11-09T22:51:02.696Z,257.60
2022-11-09T22:53:33.025Z,234.18
2022-11-09T22:56:02.546Z,215.32
2022-11-09T22:58:31.867Z,225.25
2022-11-09T23:01:07.049Z,202.52
2022-11-09T23:03:35.838Z,220.15
2022-11-09T23:06:05.505Z,227.65
2022-11-09T23:08:38.165Z,214.27
2022-11-09T23:11:07.129Z,206.05
2022-11-09T23:13:35.769Z,205.98
2022-11-09T23:16:06.769Z,240.25
2022-11-09T23:19:00.939Z,224.80
2022-11-09T23:21:31.470Z,241.60
2022-11-09T23:24:02.820Z,234.98
2022-11-09T23:26:30.616Z,207.23
2022-11-09T23:28:59.380Z,218.02
2022-11-09T23:31:27.875Z,219.07
2022-11-09T23:33:57.697Z,215.57
2022-11-09T23:36:27.464Z,228.27
2022-11-09T23:38:55.828Z,259.85
2022-11-09T23:41:25.784Z,220.15
2022-11-09T23:43:56.799Z,208.60
2022-11-09T23:46:25.273Z,216.98
2022-11-09T23:48:53.813Z,216.68
2022-11-09T23:51:23.283Z,224.40
2022-11-09T23:53:51.836Z,222.48
2022-11-09T23:56:21.173Z,213.85
2022-11-09T23:58:51.943Z,201.75
